Time;durP1;ratioP1;P1;durP2;ratioP2;P2;SDS_P1;SDS_P2;PMS_P1;PMS_P2;Temp;Humidity;BMP_temperature;BMP_pressure;BME280_temperature;BME280_humidity;BME280_pressure;Samples;Min_cycle;Max_cycle;Signal;HPM_P1;HPM_P2
2022/04/28 00:01:06;;;;;;;3.80;1.95;;;9.50;99.90;;;;;;4954707;28;20043;-89
2022/04/28 00:03:36;;;;;;;3.50;1.58;;;9.50;99.90;;;;;;4947815;28;20039;-89
2022/04/28 00:06:11;;;;;;;4.63;2.20;;;9.40;99.90;;;;;;4938917;28;20035;-89
2022/04/28 00:08:49;;;;;;;5.63;2.00;;;9.20;99.90;;;;;;4933603;29;20036;-89
2022/04/28 00:11:35;;;;;;;5.85;2.25;;;9.30;99.90;;;;;;4938175;28;20035;-89
2022/04/28 00:14:09;;;;;;;5.45;2.28;;;9.30;99.90;;;;;;4949225;28;20490;-89
2022/04/28 00:17:06;;;;;;;4.13;2.08;;;9.30;99.90;;;;;;4940128;29;20038;-89
2022/04/28 00:20:09;;;;;;;4.22;2.22;;;9.30;99.90;;;;;;4932093;29;20032;-89
2022/04/28 00:22:42;;;;;;;;;;;9.30;99.90;;;;;;4936755;28;20501;-89
2022/04/28 00:25:33;;;;;;;4.93;2.03;;;9.20;99.90;;;;;;4954072;28;19961;-89
2022/04/28 00:28:13;;;;;;;4.93;1.80;;;9.20;99.90;;;;;;4958630;28;20046;-89
2022/04/28 00:30:47;;;;;;;3.60;1.70;;;9.20;99.90;;;;;;4940738;28;20513;-89
2022/04/28 00:33:23;;;;;;;3.97;1.98;;;9.20;99.90;;;;;;4938446;28;20039;-89
2022/04/28 00:35:55;;;;;;;3.35;1.80;;;9.10;99.90;;;;;;4948973;28;20027;-88
2022/04/28 00:38:32;;;;;;;4.78;1.73;;;9.10;99.90;;;;;;4941373;28;20039;-89
2022/04/28 00:41:13;;;;;;;3.80;1.60;;;9.10;99.90;;;;;;4951675;28;20122;-88
2022/04/28 00:43:54;;;;;;;4.88;2.00;;;9.10;99.90;;;;;;4956221;28;20043;-88
2022/04/28 00:52:09;;;;;;;4.90;1.90;;;9.00;99.90;;;;;;4950902;28;20039;-89
2022/04/28 00:54:49;;;;;;;4.47;2.10;;;8.90;99.90;;;;;;4950886;28;20054;-89
2022/04/28 00:57:24;;;;;;;3.67;1.88;;;8.90;99.90;;;;;;4957907;28;20111;-89
2022/04/28 00:59:50;;;;;;;4.40;1.88;;;8.80;99.90;;;;;;4957122;28;20180;-88
2022/04/28 01:02:45;;;;;;;3.80;1.80;;;8.80;99.90;;;;;;4941689;28;20035;-88
2022/04/28 01:05:19;;;;;;;4.82;2.22;;;8.80;99.90;;;;;;4948823;28;20502;-89
2022/04/28 01:08:00;;;;;;;5.65;1.83;;;8.70;99.90;;;;;;4936558;28;20038;-88
2022/04/28 01:13:21;;;;;;;4.30;1.80;;;8.70;99.90;;;;;;4961572;28;20033;-88
2022/04/28 01:15:54;;;;;;;4.55;2.20;;;8.80;99.90;;;;;;4946673;29;20028;-89
2022/04/28 01:18:31;;;;;;;5.00;2.10;;;8.70;99.90;;;;;;4947771;28;20119;-88
2022/04/28 01:21:28;;;;;;;5.03;2.13;;;8.80;99.90;;;;;;4942004;29;20095;-88
2022/04/28 01:24:02;;;;;;;3.97;1.77;;;8.70;99.90;;;;;;4926484;28;20058;-89
2022/04/28 01:26:45;;;;;;;4.03;2.00;;;8.70;99.90;;;;;;4952969;28;20041;-88
2022/04/28 01:29:21;;;;;;;3.78;1.90;;;8.60;99.90;;;;;;4946153;28;20042;-87
2022/04/28 01:32:07;;;;;;;4.63;2.00;;;8.70;99.90;;;;;;4934517;28;20031;-88
2022/04/28 01:34:33;;;;;;;5.10;2.25;;;8.60;99.90;;;;;;4945308;28;20039;-88
2022/04/28 01:37:20;;;;;;;4.72;2.38;;;8.70;99.90;;;;;;4939503;28;20502;-89
2022/04/28 01:42:58;;;;;;;5.28;2.58;;;8.50;99.90;;;;;;4949731;28;20660;-88
2022/04/28 01:45:51;;;;;;;4.43;2.47;;;8.50;99.90;;;;;;4955021;28;20035;-88
2022/04/28 01:48:33;;;;;;;5.22;2.30;;;8.50;99.90;;;;;;4918627;29;20087;-89
2022/04/28 01:57:25;;;;;;;4.72;2.63;;;8.40;99.90;;;;;;4954191;28;20682;-88
2022/04/28 02:00:03;;;;;;;4.93;2.50;;;8.50;99.90;;;;;;4943756;28;20062;-89
2022/04/28 02:02:33;;;;;;;5.40;2.47;;;8.40;99.90;;;;;;4940256;29;20039;-88
2022/04/28 02:05:07;;;;;;;4.88;2.13;;;8.40;99.90;;;;;;4938831;28;20598;-88
2022/04/28 02:07:36;;;;;;;4.70;2.65;;;8.50;99.90;;;;;;4949262;28;20705;-89
2022/04/28 02:10:13;;;;;;;5.70;3.03;;;8.40;99.90;;;;;;4936685;29;20474;-89
2022/04/28 02:12:59;;;;;;;5.10;2.42;;;8.40;99.90;;;;;;4959534;28;20051;-89
2022/04/28 02:15:36;;;;;;;5.68;2.50;;;8.50;99.90;;;;;;4954938;28;20027;-89
2022/04/28 02:18:13;;;;;;;5.78;2.30;;;8.30;99.90;;;;;;4935237;28;20042;-89
2022/04/28 02:20:48;;;;;;;8.13;3.08;;;8.30;99.90;;;;;;4933939;28;20039;-89
2022/04/28 02:23:14;;;;;;;6.25;2.47;;;8.30;99.90;;;;;;4939464;29;20027;-88
2022/04/28 02:25:40;;;;;;;7.03;2.58;;;8.30;99.90;;;;;;4943914;28;20031;-89
2022/04/28 02:28:09;;;;;;;6.65;3.05;;;8.20;99.90;;;;;;4946266;28;20146;-90
2022/04/28 02:30:35;;;;;;;6.13;2.67;;;8.30;99.90;;;;;;4940154;28;20033;-89
2022/04/28 02:33:12;;;;;;;4.28;2.30;;;8.30;99.90;;;;;;4954815;28;20035;-89
2022/04/28 02:35:44;;;;;;;5.13;2.38;;;8.30;99.90;;;;;;4935831;29;20042;-89
2022/04/28 02:38:21;;;;;;;4.22;2.40;;;8.20;99.90;;;;;;4951309;28;20092;-89
2022/04/28 02:40:57;;;;;;;5.60;2.90;;;8.30;99.90;;;;;;4947261;28;20035;-89
2022/04/28 02:43:30;;;;;;;6.38;2.80;;;8.30;99.90;;;;;;4941550;28;20086;-89
2022/04/28 02:46:15;;;;;;;6.18;3.03;;;8.20;99.90;;;;;;4933840;29;20054;-89
2022/04/28 02:48:44;;;;;;;5.38;2.58;;;8.20;99.90;;;;;;4947865;28;20026;-88
2022/04/28 02:51:18;;;;;;;6.63;2.70;;;8.20;99.90;;;;;;4937047;28;20504;-89
2022/04/28 02:54:06;;;;;;;5.43;2.70;;;8.00;99.90;;;;;;4946826;29;20055;-88
2022/04/28 02:56:44;;;;;;;5.80;2.95;;;8.10;99.90;;;;;;4953016;28;20036;-89
2022/04/28 02:59:13;;;;;;;6.03;2.85;;;8.20;99.90;;;;;;4949379;28;20031;-90
2022/04/28 03:01:43;;;;;;;6.68;2.80;;;8.10;99.90;;;;;;4947622;28;20118;-89
2022/04/28 03:04:11;;;;;;;7.28;3.10;;;8.20;99.90;;;;;;4947674;28;20020;-89
2022/04/28 03:12:23;;;;;;;5.25;2.75;;;8.20;99.90;;;;;;4932872;28;20030;-89
2022/04/28 03:15:07;;;;;;;6.05;3.05;;;8.20;99.90;;;;;;4945930;28;20019;-90
2022/04/28 03:17:38;;;;;;;8.13;2.83;;;8.10;99.90;;;;;;4950505;28;20031;-89
2022/04/28 03:20:15;;;;;;;7.53;3.38;;;8.20;99.90;;;;;;4937383;28;20050;-89
2022/04/28 03:23:04;;;;;;;6.55;3.33;;;8.10;99.90;;;;;;4934620;29;20077;-89
2022/04/28 03:25:32;;;;;;;5.07;2.63;;;8.10;99.90;;;;;;4958717;28;20039;-89
2022/04/28 03:28:04;;;;;;;7.43;3.33;;;8.00;99.90;;;;;;4962450;28;20029;-89
2022/04/28 03:30:40;;;;;;;6.07;2.97;;;8.10;99.90;;;;;;4947667;29;20032;-89
2022/04/28 03:33:31;;;;;;;7.95;3.58;;;8.20;99.90;;;;;;4947801;29;20027;-90
2022/04/28 03:42:12;;;;;;;6.07;2.95;;;8.00;99.90;;;;;;4960197;28;20520;-89
2022/04/28 03:44:46;;;;;;;5.88;3.22;;;8.00;99.90;;;;;;4959262;28;20147;-90
2022/04/28 03:47:19;;;;;;;6.80;2.97;;;8.00;99.90;;;;;;4957510;28;20035;-89
2022/04/28 03:56:18;;;;;;;7.07;3.17;;;8.00;99.90;;;;;;4887339;29;20483;-89
2022/04/28 03:59:12;;;;;;;;;;;;;;;;;;;;;
2022/04/28 04:01:41;;;;;;;6.72;2.90;;;7.90;99.90;;;;;;4958003;28;20134;-89
2022/04/28 04:04:22;;;;;;;6.00;3.30;;;7.80;99.90;;;;;;4951582;28;20037;-90
2022/04/28 04:06:57;;;;;;;6.15;3.25;;;7.90;99.90;;;;;;4953094;29;20026;-89
2022/04/28 04:09:32;;;;;;;6.75;3.00;;;7.90;99.90;;;;;;4949584;29;20027;-90
2022/04/28 04:12:32;;;;;;;;;;;;;;;;;;;;;
2022/04/28 04:15:26;;;;;;;7.13;3.30;;;7.90;99.90;;;;;;4961731;28;20111;-90
2022/04/28 04:22:02;;;;;;;7.30;3.22;;;7.90;99.90;;;;;;4940788;28;20051;-89
2022/04/28 04:24:51;;;;;;;7.25;2.95;;;7.90;99.90;;;;;;4953788;28;20612;-89
2022/04/28 04:27:43;;;;;;;6.32;3.08;;;7.80;99.90;;;;;;4965779;28;20390;-90
2022/04/28 04:33:31;;;;;;;7.07;3.33;;;7.80;99.90;;;;;;4955594;28;20038;-89
2022/04/28 04:36:25;;;;;;;7.53;3.42;;;7.80;99.90;;;;;;4956266;28;20038;-89
2022/04/28 04:43:02;;;;;;;6.63;2.70;;;7.90;99.90;;;;;;4959860;28;20470;-89
2022/04/28 04:45:28;;;;;;;6.15;2.60;;;8.00;99.90;;;;;;4957136;23;20054;-86
2022/04/28 04:47:54;;;;;;;7.13;3.10;;;8.00;99.90;;;;;;4934445;29;20032;-85
2022/04/28 04:50:20;;;;;;;7.00;3.30;;;8.00;99.90;;;;;;4929117;29;20046;-86
2022/04/28 04:52:45;;;;;;;7.28;3.28;;;8.00;99.90;;;;;;4940241;29;20063;-86
2022/04/28 04:55:11;;;;;;;10.00;3.72;;;8.10;99.90;;;;;;4934879;29;20043;-86
2022/04/28 04:57:37;;;;;;;7.30;3.47;;;8.20;99.90;;;;;;4953074;28;20027;-87
2022/04/28 05:00:04;;;;;;;5.63;3.10;;;8.20;99.90;;;;;;4931465;29;20379;-86
2022/04/28 05:02:30;;;;;;;7.97;4.20;;;8.30;99.90;;;;;;4936761;29;20035;-86
2022/04/28 05:04:56;;;;;;;7.20;3.90;;;8.30;99.90;;;;;;4953821;29;20027;-86
2022/04/28 05:07:21;;;;;;;6.93;3.30;;;8.30;99.90;;;;;;4953727;28;20027;-86
2022/04/28 05:09:47;;;;;;;8.90;3.28;;;8.50;99.90;;;;;;4950384;28;20030;-85
2022/04/28 05:12:12;;;;;;;8.02;3.67;;;8.40;99.90;;;;;;4952948;29;20063;-86
2022/04/28 05:14:38;;;;;;;7.60;3.08;;;8.50;99.90;;;;;;4952036;28;20023;-86
2022/04/28 05:17:04;;;;;;;6.82;3.08;;;8.60;99.90;;;;;;4935733;29;20114;-86
2022/04/28 05:19:30;;;;;;;6.57;3.30;;;8.60;99.90;;;;;;4936668;29;20470;-85
2022/04/28 05:21:55;;;;;;;6.60;3.25;;;8.70;99.90;;;;;;4954473;29;20031;-86
2022/04/28 05:24:22;;;;;;;7.03;3.22;;;8.70;99.90;;;;;;4954246;28;20039;-85
2022/04/28 05:26:47;;;;;;;6.43;3.15;;;8.80;99.90;;;;;;4932677;29;20453;-86
2022/04/28 05:29:13;;;;;;;6.95;3.15;;;8.90;99.90;;;;;;4936569;29;20027;-86
2022/04/28 05:31:39;;;;;;;6.30;3.08;;;9.00;99.90;;;;;;4938031;29;20051;-86
2022/04/28 05:34:04;;;;;;;5.15;2.65;;;9.00;99.90;;;;;;4953866;29;20032;-84
2022/04/28 05:36:31;;;;;;;7.20;3.60;;;9.10;99.90;;;;;;4949827;28;20493;-85
2022/04/28 05:38:58;;;;;;;5.93;2.97;;;9.20;99.90;;;;;;4936087;29;20035;-85
2022/04/28 05:41:25;;;;;;;5.60;2.78;;;9.40;99.90;;;;;;4954203;29;20728;-86
2022/04/28 05:46:34;;;;;;;5.68;2.88;;;9.60;99.90;;;;;;4946230;29;20039;-85
2022/04/28 05:49:00;;;;;;;4.97;2.47;;;9.70;99.90;;;;;;4949192;28;20027;-86
2022/04/28 05:51:26;;;;;;;4.40;2.30;;;9.70;99.90;;;;;;4943992;28;20031;-85
2022/04/28 05:53:52;;;;;;;4.95;2.33;;;9.90;99.90;;;;;;4952101;29;20059;-85
2022/04/28 05:56:17;;;;;;;4.78;2.13;;;10.00;99.90;;;;;;4932423;29;20032;-86
2022/04/28 05:58:43;;;;;;;4.13;2.17;;;10.10;99.90;;;;;;4937492;29;20036;-85
2022/04/28 06:01:08;;;;;;;4.72;2.33;;;10.20;99.90;;;;;;4935166;29;20055;-86
2022/04/28 06:03:34;;;;;;;4.00;1.92;;;10.20;99.90;;;;;;4932816;29;20020;-86
2022/04/28 06:06:00;;;;;;;4.43;2.05;;;10.30;99.90;;;;;;4951449;28;20520;-86
2022/04/28 06:08:25;;;;;;;4.80;2.17;;;10.40;99.90;;;;;;4952334;29;20109;-86
2022/04/28 06:10:51;;;;;;;6.82;2.15;;;10.60;99.90;;;;;;4935364;29;20043;-85
2022/04/28 06:13:16;;;;;;;4.97;2.17;;;10.60;99.90;;;;;;4955738;28;20405;-86
2022/04/28 06:15:42;;;;;;;4.90;2.13;;;10.70;99.90;;;;;;4956818;29;20023;-85
2022/04/28 06:18:08;;;;;;;5.43;2.20;;;10.80;99.90;;;;;;4956398;28;20106;-85
2022/04/28 06:20:33;;;;;;;4.68;2.08;;;10.80;99.90;;;;;;4939273;28;20458;-86
2022/04/28 06:22:59;;;;;;;5.65;2.13;;;10.90;99.90;;;;;;4946836;28;20062;-85
2022/04/28 06:25:24;;;;;;;4.57;2.22;;;10.90;99.90;;;;;;4956156;29;20031;-85
2022/04/28 06:27:51;;;;;;;4.10;1.70;;;11.00;99.90;;;;;;4944262;29;20034;-86
2022/04/28 06:30:17;;;;;;;4.85;2.00;;;11.10;99.90;;;;;;4958554;29;20062;-85
2022/04/28 06:32:43;;;;;;;4.78;2.00;;;11.10;99.90;;;;;;4930477;29;20036;-87
2022/04/28 06:35:09;;;;;;;4.32;2.28;;;11.20;99.90;;;;;;4957088;29;20041;-87
2022/04/28 06:37:36;;;;;;;4.47;2.03;;;11.30;99.90;;;;;;4944222;28;20039;-87
2022/04/28 06:40:03;;;;;;;4.07;2.00;;;11.40;99.90;;;;;;4936435;29;20079;-86
2022/04/28 06:42:28;;;;;;;3.78;1.67;;;11.50;99.90;;;;;;4952148;29;20395;-87
2022/04/28 06:44:54;;;;;;;3.17;1.67;;;11.60;99.90;;;;;;4952570;29;20039;-86
2022/04/28 06:47:21;;;;;;;4.63;1.75;;;11.70;99.90;;;;;;4954572;28;20153;-86
2022/04/28 06:49:46;;;;;;;4.38;2.33;;;11.70;99.90;;;;;;4942762;28;20023;-86
2022/04/28 06:52:15;;;;;;;4.80;2.15;;;11.70;99.90;;;;;;4942995;29;20027;-86
2022/04/28 06:54:40;;;;;;;3.53;1.63;;;11.80;99.90;;;;;;4954907;28;20042;-85
2022/04/28 06:57:06;;;;;;;5.00;2.33;;;11.90;99.90;;;;;;4944408;28;20037;-89
2022/04/28 06:59:32;;;;;;;4.53;1.85;;;12.00;99.90;;;;;;4963104;28;20063;-89
2022/04/28 07:01:57;;;;;;;4.53;1.83;;;12.20;99.90;;;;;;4936199;29;20034;-89
2022/04/28 07:04:23;;;;;;;4.88;2.00;;;12.20;99.90;;;;;;4937933;29;20062;-89
2022/04/28 07:06:49;;;;;;;4.60;2.00;;;12.30;99.90;;;;;;4935861;29;20086;-89
2022/04/28 07:09:15;;;;;;;4.43;1.98;;;12.40;99.90;;;;;;4953339;28;20121;-89
2022/04/28 07:11:41;;;;;;;4.45;1.77;;;12.70;99.90;;;;;;4935542;29;20718;-88
2022/04/28 07:14:06;;;;;;;3.45;1.67;;;12.70;99.90;;;;;;4952648;29;20031;-90
2022/04/28 07:16:32;;;;;;;5.30;2.03;;;12.70;99.90;;;;;;4934378;29;20027;-88
2022/04/28 07:18:58;;;;;;;3.65;1.70;;;12.80;99.90;;;;;;4934996;29;20027;-87
2022/04/28 07:21:24;;;;;;;3.17;1.55;;;12.90;99.90;;;;;;4934799;29;20031;-88
2022/04/28 07:23:49;;;;;;;3.20;1.67;;;13.00;99.90;;;;;;4941396;28;20034;-89
2022/04/28 07:26:15;;;;;;;5.82;2.75;;;13.10;99.90;;;;;;4932353;29;20387;-88
2022/04/28 07:28:40;;;;;;;4.07;1.90;;;13.00;99.90;;;;;;4934758;29;20023;-87
2022/04/28 07:31:06;;;;;;;3.72;1.90;;;13.20;99.90;;;;;;4951110;29;20131;-87
2022/04/28 07:33:33;;;;;;;3.65;1.83;;;13.20;99.90;;;;;;4929336;29;20082;-88
2022/04/28 07:35:58;;;;;;;6.85;2.30;;;13.20;99.90;;;;;;4934112;29;20031;-87
2022/04/28 07:38:24;;;;;;;5.03;2.28;;;13.40;99.90;;;;;;4934235;29;20027;-88
2022/04/28 07:40:51;;;;;;;5.03;1.73;;;13.50;99.90;;;;;;4934238;29;20031;-88
2022/04/28 07:43:17;;;;;;;5.28;2.15;;;13.40;99.90;;;;;;4952228;29;20452;-89
2022/04/28 07:45:43;;;;;;;3.83;1.98;;;13.70;99.90;;;;;;4935218;29;20045;-90
2022/04/28 07:48:08;;;;;;;4.57;2.13;;;13.60;99.90;;;;;;4935255;29;20023;-89
2022/04/28 07:50:34;;;;;;;4.70;1.95;;;13.70;99.90;;;;;;4924658;29;20038;-88
2022/04/28 07:53:00;;;;;;;5.60;1.83;;;13.90;99.90;;;;;;4934505;29;20051;-88
2022/04/28 07:55:26;;;;;;;5.55;2.50;;;13.90;99.90;;;;;;4934990;29;20032;-90
2022/04/28 07:57:51;;;;;;;5.55;2.17;;;14.10;99.90;;;;;;4951379;28;20170;-88
2022/04/28 08:00:23;;;;;;;5.05;1.95;;;14.30;99.90;;;;;;4951564;29;20039;-87
2022/04/28 08:03:00;;;;;;;4.60;2.10;;;14.40;99.90;;;;;;4950868;29;20062;-90
2022/04/28 08:05:33;;;;;;;4.32;2.00;;;14.50;99.90;;;;;;4932719;29;20138;-89
2022/04/28 08:07:58;;;;;;;3.33;1.83;;;14.80;99.90;;;;;;4933119;29;20437;-90
2022/04/28 08:10:24;;;;;;;3.95;2.15;;;14.60;99.90;;;;;;4933725;29;20024;-89
2022/04/28 08:13:16;;;;;;;3.97;1.65;;;14.70;99.90;;;;;;4951119;29;20031;-90
2022/04/28 08:15:54;;;;;;;5.03;1.80;;;14.70;99.90;;;;;;4940786;29;20043;-90
2022/04/28 08:18:21;;;;;;;3.38;1.60;;;14.90;99.90;;;;;;4931091;29;20115;-88
2022/04/28 08:20:55;;;;;;;3.88;1.80;;;15.00;99.90;;;;;;4952395;28;20114;-90
2022/04/28 08:26:39;;;;;;;3.42;1.67;;;15.30;99.90;;;;;;4958950;28;20066;-89
2022/04/28 08:29:05;;;;;;;4.45;1.80;;;15.50;99.90;;;;;;4947999;29;20051;-87
2022/04/28 08:31:32;;;;;;;4.95;1.48;;;15.50;99.70;;;;;;4958577;28;20042;-88
2022/04/28 08:33:57;;;;;;;3.30;1.58;;;15.60;99.50;;;;;;4951646;28;20536;-89
2022/04/28 08:36:24;;;;;;;3.63;1.40;;;15.50;99.80;;;;;;4950266;29;20062;-89
2022/04/28 08:38:50;;;;;;;3.40;1.20;;;15.70;99.10;;;;;;4933520;29;20020;-89
2022/04/28 08:41:28;;;;;;;3.20;1.35;;;15.80;99.40;;;;;;4924432;28;20031;-89
2022/04/28 08:43:57;;;;;;;4.10;1.60;;;16.00;98.90;;;;;;4953741;29;20027;-89
2022/04/28 08:49:10;;;;;;;4.07;1.52;;;16.10;98.80;;;;;;4953621;29;20520;-89
2022/04/28 08:51:38;;;;;;;2.85;1.55;;;16.20;97.80;;;;;;4941244;29;20082;-89
2022/04/28 08:54:04;;;;;;;3.92;1.60;;;16.10;96.90;;;;;;4937537;29;20019;-88
2022/04/28 08:56:30;;;;;;;2.30;1.02;;;16.20;98.30;;;;;;4951499;29;20038;-88
2022/04/28 08:58:56;;;;;;;2.65;1.30;;;16.30;96.30;;;;;;4934591;29;20023;-88
2022/04/28 09:01:25;;;;;;;2.63;1.00;;;16.30;97.20;;;;;;4934248;29;20057;-88
2022/04/28 09:03:51;;;;;;;3.83;1.48;;;16.30;97.60;;;;;;4937642;29;20132;-88
2022/04/28 09:06:22;;;;;;;2.30;1.23;;;16.30;95.80;;;;;;4932390;29;20119;-88
2022/04/28 09:08:49;;;;;;;2.63;0.95;;;16.10;95.30;;;;;;4929834;29;20023;-88
2022/04/28 09:11:20;;;;;;;2.30;1.23;;;16.30;96.00;;;;;;4934562;29;20062;-88
2022/04/28 09:14:09;;;;;;;3.13;1.45;;;16.40;95.50;;;;;;4953749;29;20629;-88
2022/04/28 09:16:59;;;;;;;2.65;1.15;;;16.30;94.40;;;;;;4952961;29;20034;-89
2022/04/28 09:19:34;;;;;;;2.25;1.13;;;16.40;94.30;;;;;;4934108;28;20789;-89
2022/04/28 09:22:12;;;;;;;3.50;1.20;;;16.60;94.90;;;;;;4934250;29;20503;-89
2022/04/28 09:24:40;;;;;;;2.88;1.23;;;16.70;94.50;;;;;;4940702;28;20098;-89
2022/04/28 09:27:07;;;;;;;2.15;0.85;;;17.10;94.90;;;;;;4932816;28;20027;-87
2022/04/28 09:29:36;;;;;;;2.38;1.10;;;17.50;93.70;;;;;;4924461;29;20181;-89
2022/04/28 09:32:06;;;;;;;3.10;1.15;;;17.40;93.10;;;;;;4948410;29;20045;-88
2022/04/28 09:34:32;;;;;;;2.30;1.00;;;17.60;92.10;;;;;;4952496;29;20019;-88
2022/04/28 09:36:59;;;;;;;2.80;0.90;;;17.80;90.70;;;;;;4950789;28;20030;-89
2022/04/28 09:42:31;;;;;;;2.03;0.80;;;17.70;92.10;;;;;;4952290;29;20560;-89
2022/04/28 09:44:59;;;;;;;3.85;1.17;;;17.80;90.30;;;;;;4934750;29;20391;-89
2022/04/28 09:47:27;;;;;;;1.88;1.08;;;17.70;88.20;;;;;;4950846;28;20026;-87
2022/04/28 09:49:58;;;;;;;1.52;0.77;;;17.80;89.40;;;;;;4950125;28;20046;-88
2022/04/28 09:53:08;;;;;;;1.80;1.00;;;17.80;87.20;;;;;;4934522;29;20035;-88
2022/04/28 09:55:50;;;;;;;3.08;1.30;;;17.60;87.70;;;;;;4912453;29;20046;-88
2022/04/28 09:58:37;;;;;;;;;;;17.80;85.60;;;;;;4932103;29;20039;-88
2022/04/28 10:15:55;;;;;;;1.88;0.98;;;18.80;84.20;;;;;;4942171;27;20070;-88
2022/04/28 10:21:52;;;;;;;2.22;0.70;;;18.60;84.80;;;;;;4955205;28;20102;-87
2022/04/28 10:52:59;;;;;;;1.60;0.73;;;19.40;76.90;;;;;;4571030;23;20048;-87
2022/04/28 10:55:40;;;;;;;2.80;0.80;;;19.20;79.60;;;;;;4932997;29;20334;-88
2022/04/28 10:58:29;;;;;;;2.17;1.00;;;19.30;76.90;;;;;;4925777;29;20398;-87
2022/04/28 11:00:57;;;;;;;1.67;0.80;;;19.50;80.00;;;;;;4941497;29;20035;-86
2022/04/28 11:03:58;;;;;;;1.95;0.82;;;19.50;75.70;;;;;;4923956;29;20027;-88
2022/04/28 11:06:37;;;;;;;2.05;0.90;;;19.70;76.70;;;;;;4922922;29;20032;-89
2022/04/28 11:09:13;;;;;;;2.40;0.80;;;19.80;74.90;;;;;;4931683;29;20513;-88
2022/04/28 11:11:49;;;;;;;1.92;0.85;;;20.10;77.30;;;;;;4924349;29;20426;-89
2022/04/28 11:14:20;;;;;;;1.58;0.75;;;20.30;78.10;;;;;;4923456;29;20027;-88
2022/04/28 11:16:45;;;;;;;1.50;0.73;;;20.00;72.70;;;;;;4930187;29;20042;-88
2022/04/28 11:19:12;;;;;;;1.95;0.80;;;19.90;74.00;;;;;;4957996;29;20031;-88
2022/04/28 11:21:41;;;;;;;2.08;0.88;;;19.70;73.90;;;;;;4938032;29;20035;-87
2022/04/28 11:24:15;;;;;;;1.38;0.73;;;20.10;72.80;;;;;;4938207;29;20038;-88
2022/04/28 11:26:41;;;;;;;2.92;1.10;;;20.30;71.60;;;;;;4929495;29;20031;-89
2022/04/28 11:29:10;;;;;;;3.60;0.90;;;20.60;72.20;;;;;;4921613;29;20075;-87
2022/04/28 11:31:46;;;;;;;1.40;0.80;;;20.80;71.40;;;;;;4923370;29;20036;-88
2022/04/28 11:34:17;;;;;;;1.48;0.70;;;21.00;71.40;;;;;;4933606;29;20023;-88
2022/04/28 11:36:48;;;;;;;2.10;0.85;;;20.90;71.00;;;;;;4931314;29;20024;-88
2022/04/28 11:39:16;;;;;;;2.38;0.93;;;20.90;72.30;;;;;;4938092;29;20063;-88
2022/04/28 11:42:07;;;;;;;2.45;1.05;;;20.80;70.30;;;;;;4940913;29;20042;-87
2022/04/28 11:44:47;;;;;;;2.95;0.77;;;20.90;70.40;;;;;;4926932;29;20042;-88
2022/04/28 11:47:13;;;;;;;3.20;1.02;;;20.90;69.60;;;;;;4921935;29;20042;-88
2022/04/28 11:49:40;;;;;;;2.10;0.80;;;20.80;68.70;;;;;;4919717;29;20030;-90
2022/04/28 11:53:00;;;;;;;;;;;;;;;;;;;;;
2022/04/28 11:55:50;;;;;;;1.65;0.70;;;21.10;70.60;;;;;;4939557;29;20099;-89
2022/04/28 11:58:16;;;;;;;2.25;0.68;;;21.00;69.20;;;;;;4923462;29;20055;-89
2022/04/28 12:00:53;;;;;;;1.60;0.70;;;21.20;67.10;;;;;;4927988;29;20032;-90
2022/04/28 12:03:52;;;;;;;2.50;0.93;;;21.50;67.30;;;;;;4928905;29;20453;-89
2022/04/28 12:06:30;;;;;;;1.10;0.63;;;20.70;69.40;;;;;;4933166;29;20498;-89
2022/04/28 12:08:58;;;;;;;1.85;0.80;;;20.70;70.10;;;;;;4926873;29;20038;-90
2022/04/28 12:14:24;;;;;;;1.48;0.73;;;21.50;70.00;;;;;;4940335;29;20051;-90
2022/04/28 12:20:04;;;;;;;1.75;0.65;;;21.70;69.10;;;;;;4924115;29;20238;-88
2022/04/28 12:22:39;;;;;;;1.67;0.82;;;22.10;71.80;;;;;;4949107;29;20462;-89
2022/04/28 12:25:13;;;;;;;2.63;0.80;;;22.10;65.60;;;;;;4925513;29;20034;-89
2022/04/28 12:27:45;;;;;;;2.40;0.80;;;22.50;69.10;;;;;;4941935;29;20027;-90
2022/04/28 12:30:14;;;;;;;2.63;0.88;;;22.10;64.90;;;;;;4943298;29;20034;-89
2022/04/28 12:32:51;;;;;;;2.08;0.80;;;21.60;65.70;;;;;;4922339;29;20643;-89
2022/04/28 12:35:36;;;;;;;3.22;1.08;;;21.50;67.20;;;;;;4922530;29;20463;-88
2022/04/28 12:38:07;;;;;;;2.50;0.98;;;21.50;67.30;;;;;;4943905;29;20062;-88
2022/04/28 12:41:21;;;;;;;1.70;0.90;;;21.40;66.10;;;;;;4944543;29;20027;-91
2022/04/28 12:44:00;;;;;;;2.10;0.60;;;21.20;66.10;;;;;;4917558;29;20027;-89
2022/04/28 12:46:29;;;;;;;1.48;0.93;;;21.50;70.20;;;;;;4923250;29;20149;-89
2022/04/28 12:48:56;;;;;;;1.75;0.75;;;21.80;68.20;;;;;;4917186;29;20569;-87
2022/04/28 12:51:26;;;;;;;1.45;0.70;;;22.20;64.60;;;;;;4941857;29;20729;-89
2022/04/28 12:54:13;;;;;;;2.22;0.90;;;22.60;63.50;;;;;;4943152;29;20130;-86
2022/04/28 12:56:43;;;;;;;1.63;0.60;;;22.70;64.20;;;;;;4910594;29;20067;-88
2022/04/28 12:59:13;;;;;;;1.23;0.73;;;23.00;61.60;;;;;;4925996;29;20543;-88
2022/04/28 13:01:46;;;;;;;6.00;0.80;;;23.20;63.40;;;;;;4924630;29;20028;-88
2022/04/28 13:04:18;;;;;;;1.55;0.70;;;23.40;62.50;;;;;;4943809;29;20731;-88
2022/04/28 13:06:44;;;;;;;;;;;23.50;62.90;;;;;;4926115;29;20584;-88
2022/04/28 13:09:16;;;;;;;2.10;0.90;;;23.50;60.90;;;;;;4943310;29;20377;-88
2022/04/28 13:11:44;;;;;;;1.42;0.75;;;23.50;62.90;;;;;;4942610;29;20038;-89
2022/04/28 13:14:13;;;;;;;2.40;1.10;;;23.60;64.50;;;;;;4926911;29;20027;-88
2022/04/28 13:16:40;;;;;;;1.58;0.77;;;23.50;62.80;;;;;;4944041;29;20771;-88
2022/04/28 13:19:07;;;;;;;1.80;0.75;;;23.40;61.60;;;;;;4941316;29;20052;-88
2022/04/28 13:21:36;;;;;;;1.65;0.88;;;23.10;62.90;;;;;;4923830;29;20035;-89
2022/04/28 13:24:01;;;;;;;1.90;0.80;;;23.20;61.20;;;;;;4941475;29;20031;-88
2022/04/28 13:26:29;;;;;;;2.58;0.90;;;23.30;60.10;;;;;;4941432;29;20179;-87
2022/04/28 13:28:56;;;;;;;2.80;0.90;;;23.10;61.80;;;;;;4924357;29;20027;-89
2022/04/28 13:31:22;;;;;;;2.13;0.90;;;23.40;60.50;;;;;;4918346;29;20054;-88
2022/04/28 13:33:49;;;;;;;2.60;0.80;;;23.50;59.60;;;;;;4922391;29;20032;-89
2022/04/28 13:36:17;;;;;;;2.30;0.90;;;23.80;58.30;;;;;;4922638;29;20031;-89
2022/04/28 13:38:46;;;;;;;1.80;0.75;;;23.70;57.60;;;;;;4942019;29;20059;-88
2022/04/28 13:41:13;;;;;;;1.67;0.73;;;23.70;60.40;;;;;;4924056;29;20035;-88
2022/04/28 13:43:54;;;;;;;1.50;0.80;;;24.10;62.60;;;;;;4923763;29;20031;-89
2022/04/28 13:46:26;;;;;;;1.90;0.60;;;24.40;61.50;;;;;;4927078;29;20723;-90
2022/04/28 13:48:51;;;;;;;2.05;0.90;;;24.70;61.90;;;;;;4921365;29;20122;-90
2022/04/28 13:51:20;;;;;;;1.30;0.77;;;24.90;60.10;;;;;;4929830;29;20111;-90
2022/04/28 13:53:46;;;;;;;1.85;0.75;;;25.30;59.90;;;;;;4923172;29;20035;-91
2022/04/28 13:56:31;;;;;;;2.35;0.50;;;25.80;59.50;;;;;;4929696;29;20035;-91
2022/04/28 13:59:23;;;;;;;1.10;0.50;;;25.60;58.70;;;;;;4948676;29;20038;-91
2022/04/28 14:01:52;;;;;;;2.20;0.60;;;25.80;57.30;;;;;;4925480;29;20049;-91
2022/04/28 14:04:26;;;;;;;1.58;0.60;;;25.80;57.60;;;;;;4930744;29;20020;-91
2022/04/28 14:07:13;;;;;;;2.95;0.88;;;26.10;59.50;;;;;;4938353;29;20050;-91
2022/04/28 14:09:42;;;;;;;2.78;1.13;;;26.00;57.50;;;;;;4944183;29;20036;-90
2022/04/28 14:12:08;;;;;;;1.92;0.70;;;25.50;55.90;;;;;;4929683;29;20513;-91
2022/04/28 14:14:33;;;;;;;1.95;0.80;;;25.10;56.80;;;;;;4928790;29;20095;-90
2022/04/28 14:16:59;;;;;;;1.55;0.60;;;24.90;57.50;;;;;;4930354;29;20043;-89
2022/04/28 14:19:32;;;;;;;1.10;0.60;;;24.60;58.10;;;;;;4929903;29;20032;-91
2022/04/28 14:22:02;;;;;;;2.38;0.93;;;24.90;58.40;;;;;;4932033;29;20043;-90
2022/04/28 14:24:27;;;;;;;1.55;0.90;;;24.50;57.10;;;;;;4937005;29;20031;-89
2022/04/28 14:26:53;;;;;;;1.40;0.57;;;24.20;56.40;;;;;;4948883;29;20095;-90
2022/04/28 14:29:24;;;;;;;2.30;0.80;;;24.70;58.30;;;;;;4935894;29;20016;-90
2022/04/28 14:31:50;;;;;;;1.88;0.80;;;24.70;56.50;;;;;;4931958;29;20147;-89
2022/04/28 14:34:19;;;;;;;1.45;0.73;;;25.10;59.80;;;;;;4926443;29;20574;-90
2022/04/28 14:36:47;;;;;;;2.38;1.05;;;25.10;56.50;;;;;;4951144;29;20031;-90
2022/04/28 14:39:16;;;;;;;2.15;0.63;;;25.30;55.90;;;;;;4951522;29;20043;-90
2022/04/28 14:41:49;;;;;;;1.30;0.70;;;25.30;56.30;;;;;;4933245;29;20071;-91
2022/04/28 14:44:24;;;;;;;1.88;0.90;;;25.70;56.60;;;;;;4925577;29;20054;-88
2022/04/28 14:47:04;;;;;;;1.70;0.77;;;25.60;56.20;;;;;;4947636;29;20024;-91
2022/04/28 14:52:38;;;;;;;1.45;0.63;;;26.00;52.70;;;;;;4940727;29;20054;-90
2022/04/28 14:55:33;;;;;;;1.60;0.75;;;25.90;53.70;;;;;;4930621;29;20057;-91
2022/04/28 14:58:06;;;;;;;1.85;0.77;;;25.80;56.00;;;;;;4915888;29;20135;-91
2022/04/28 15:00:43;;;;;;;1.67;0.63;;;25.50;54.60;;;;;;4920812;29;20032;-90
2022/04/28 15:03:18;;;;;;;1.95;0.77;;;25.30;54.20;;;;;;4920619;29;20055;-90
2022/04/28 15:09:42;;;;;;;1.55;0.60;;;24.90;56.40;;;;;;4901529;29;20446;-89
2022/04/28 15:12:12;;;;;;;1.88;0.80;;;24.70;56.40;;;;;;4888017;29;20043;-91
2022/04/28 15:17:44;;;;;;;1.45;0.77;;;24.60;56.90;;;;;;4944178;29;20046;-91
2022/04/28 15:23:43;;;;;;;1.95;0.90;;;24.30;57.80;;;;;;4937316;29;20040;-91
2022/04/28 15:26:45;;;;;;;1.85;0.70;;;24.10;57.40;;;;;;4947638;29;20042;-91
2022/04/28 15:29:11;;;;;;;2.08;0.77;;;24.20;57.60;;;;;;4940703;29;20051;-90